Time;durP1;ratioP1;P1;durP2;ratioP2;P2;SDS_P1;SDS_P2;PMS_P1;PMS_P2;Temp;Humidity;BMP_temperature;BMP_pressure;BME280_temperature;BME280_humidity;BME280_pressure;Samples;Min_cycle;Max_cycle;Signal;HPM_P1;HPM_P2
2023/01/07 00:03:27;;;;;;;11.65;5.00;;;;;;;;;;4898707;29;20116;-83
2023/01/07 00:05:57;;;;;;;11.18;5.20;;;;;;;;;;4901181;29;20036;-84
2023/01/07 00:08:22;;;;;;;11.27;5.30;;;;;;;;;;4906300;29;20411;-84
2023/01/07 00:10:48;;;;;;;9.95;4.47;;;;;;;;;;4914871;29;20028;-84
2023/01/07 00:13:13;;;;;;;11.75;4.90;;;;;;;;;;4897130;29;20036;-85
2023/01/07 00:18:23;;;;;;;12.85;5.03;;;;;;;;;;4875807;29;20124;-84
2023/01/07 00:20:48;;;;;;;15.32;5.10;;;;;;;;;;4897440;29;20139;-85
2023/01/07 00:23:14;;;;;;;10.32;5.13;;;;;;;;;;4896269;29;20088;-84
2023/01/07 00:25:40;;;;;;;14.43;5.65;;;;;;;;;;4896753;29;20040;-84
2023/01/07 00:28:05;;;;;;;12.70;5.15;;;;;;;;;;4878294;29;20035;-84
2023/01/07 00:30:31;;;;;;;6.97;3.53;;;;;;;;;;4891132;29;20033;-85
2023/01/07 00:33:15;;;;;;;6.97;3.55;;;;;;;;;;4878317;29;20092;-84
2023/01/07 00:35:43;;;;;;;9.80;5.00;;;;;;;;;;4892063;29;20125;-84
2023/01/07 00:38:09;;;;;;;13.18;5.07;;;;;;;;;;4897186;29;20029;-84
2023/01/07 00:40:34;;;;;;;13.10;4.55;;;;;;;;;;4897003;29;20066;-85
2023/01/07 00:43:06;;;;;;;8.88;4.45;;;;;;;;;;4922732;29;20025;-86
2023/01/07 00:45:35;;;;;;;9.57;5.22;;;;;;;;;;4909177;29;20028;-83
2023/01/07 00:48:01;;;;;;;10.38;5.35;;;;;;;;;;4887623;29;20029;-84
2023/01/07 00:50:27;;;;;;;12.82;5.43;;;;;;;;;;4880949;29;20037;-84
2023/01/07 00:52:53;;;;;;;11.57;5.68;;;;;;;;;;4887146;29;20064;-84
2023/01/07 00:58:03;;;;;;;11.57;4.65;;;;;;;;;;4907580;29;20399;-84
2023/01/07 01:00:28;;;;;;;13.38;5.57;;;;;;;;;;4912307;29;20119;-85
2023/01/07 01:02:54;;;;;;;10.40;4.95;;;;;;;;;;4897353;29;20032;-84
2023/01/07 01:05:20;;;;;;;12.73;5.63;;;;;;;;;;4897262;29;20080;-84
2023/01/07 01:07:45;;;;;;;13.82;5.22;;;;;;;;;;4881359;29;20056;-85
2023/01/07 01:10:12;;;;;;;8.60;4.03;;;;;;;;;;4880949;29;20067;-83
2023/01/07 01:12:38;;;;;;;10.48;5.25;;;;;;;;;;4897002;29;20040;-85
2023/01/07 01:15:04;;;;;;;12.63;3.97;;;;;;;;;;4880611;29;20029;-84
2023/01/07 01:17:30;;;;;;;16.02;5.13;;;;;;;;;;4896183;29;20063;-85
2023/01/07 01:19:55;;;;;;;11.13;5.35;;;;;;;;;;4896422;29;20520;-84
2023/01/07 01:22:21;;;;;;;9.32;5.22;;;;;;;;;;4875215;29;20488;-84
2023/01/07 01:24:46;;;;;;;9.25;4.78;;;;;;;;;;4878406;29;20100;-85
2023/01/07 01:29:56;;;;;;;8.43;3.63;;;;;;;;;;4896118;29;20036;-85
2023/01/07 01:32:23;;;;;;;10.80;3.97;;;;;;;;;;4911985;29;20352;-84
2023/01/07 01:37:33;;;;;;;12.07;5.20;;;;;;;;;;4897379;29;20039;-85
2023/01/07 01:40:02;;;;;;;6.90;3.30;;;;;;;;;;4897167;29;20384;-84
2023/01/07 01:42:28;;;;;;;11.05;4.03;;;;;;;;;;4892688;29;20107;-83
2023/01/07 01:44:55;;;;;;;8.18;4.05;;;;;;;;;;4924125;29;20021;-84
2023/01/07 01:47:27;;;;;;;12.35;4.38;;;;;;;;;;4895971;29;20040;-85
2023/01/07 01:50:11;;;;;;;9.85;4.35;;;;;;;;;;4911813;29;20088;-84
2023/01/07 01:52:55;;;;;;;9.35;2.90;;;;;;;;;;4897370;29;20044;-84
2023/01/07 01:55:23;;;;;;;13.27;5.03;;;;;;;;;;4887406;29;20040;-84
2023/01/07 01:57:50;;;;;;;9.93;4.70;;;;;;;;;;4895276;29;20024;-84
2023/01/07 02:00:16;;;;;;;10.23;3.75;;;;;;;;;;4895273;29;20132;-84
2023/01/07 02:02:47;;;;;;;10.20;4.82;;;;;;;;;;4880746;29;20040;-84
2023/01/07 02:05:13;;;;;;;12.63;5.00;;;;;;;;;;4879927;29;20056;-84
2023/01/07 02:07:39;;;;;;;9.85;4.50;;;;;;;;;;4880229;29;20060;-83
2023/01/07 02:10:09;;;;;;;8.05;3.55;;;;;;;;;;4894957;29;20028;-83
2023/01/07 02:12:53;;;;;;;5.22;3.20;;;;;;;;;;4898834;29;20036;-84
2023/01/07 02:15:38;;;;;;;10.23;4.20;;;;;;;;;;4896102;29;20040;-84
2023/01/07 02:21:07;;;;;;;7.88;3.70;;;;;;;;;;4893779;29;20056;-84
2023/01/07 02:23:48;;;;;;;9.07;4.68;;;;;;;;;;4896832;29;20488;-84
2023/01/07 02:26:19;;;;;;;14.18;5.43;;;;;;;;;;4895164;29;20048;-84
2023/01/07 02:28:44;;;;;;;14.75;4.95;;;;;;;;;;4930723;29;20044;-84
2023/01/07 02:31:29;;;;;;;11.02;4.35;;;;;;;;;;4900398;29;20399;-85
2023/01/07 02:34:03;;;;;;;9.63;5.00;;;;;;;;;;4930118;29;20040;-85
2023/01/07 02:39:47;;;;;;;10.23;4.88;;;;;;;;;;4919412;29;20037;-84
2023/01/07 02:45:17;;;;;;;9.65;4.43;;;;;;;;;;4911152;29;20412;-85
2023/01/07 02:47:46;;;;;;;11.32;4.85;;;;;;;;;;4881910;29;20045;-84
2023/01/07 02:50:11;;;;;;;13.20;5.30;;;;;;;;;;4899677;29;20056;-84
2023/01/07 02:52:37;;;;;;;9.60;4.68;;;;;;;;;;4899541;29;20509;-84
2023/01/07 02:57:51;;;;;;;13.85;4.65;;;;;;;;;;4918930;29;20064;-84
2023/01/07 03:03:30;;;;;;;6.57;3.25;;;;;;;;;;4899776;29;20043;-84
2023/01/07 03:06:04;;;;;;;12.90;5.45;;;;;;;;;;4894600;29;20036;-83
2023/01/07 03:08:34;;;;;;;12.13;4.97;;;;;;;;;;4898457;29;20051;-84
2023/01/07 03:11:00;;;;;;;6.85;3.05;;;;;;;;;;4898913;29;20036;-83
2023/01/07 03:13:29;;;;;;;8.77;4.30;;;;;;;;;;4898439;29;20116;-83
2023/01/07 03:16:13;;;;;;;13.25;5.43;;;;;;;;;;4898815;29;20036;-84
2023/01/07 03:18:40;;;;;;;11.10;4.88;;;;;;;;;;4882096;29;20036;-85
2023/01/07 03:21:07;;;;;;;7.30;4.15;;;;;;;;;;4898541;29;20056;-84
2023/01/07 03:29:03;;;;;;;13.73;5.75;;;;;;;;;;4897755;29;20048;-83
2023/01/07 03:31:32;;;;;;;11.52;5.70;;;;;;;;;;4897822;29;20054;-84
2023/01/07 03:33:59;;;;;;;10.85;5.18;;;;;;;;;;4908785;29;20037;-83
2023/01/07 03:36:26;;;;;;;10.18;4.55;;;;;;;;;;4882771;29;20033;-86
2023/01/07 03:38:54;;;;;;;12.05;4.15;;;;;;;;;;4913139;29;20557;-84
2023/01/07 03:44:03;;;;;;;14.13;5.93;;;;;;;;;;4896357;29;20088;-84
2023/01/07 03:46:29;;;;;;;10.90;4.93;;;;;;;;;;4913934;29;20477;-84
2023/01/07 03:51:39;;;;;;;14.50;6.32;;;;;;;;;;4916366;29;20065;-84
2023/01/07 03:54:05;;;;;;;10.98;5.45;;;;;;;;;;4898911;29;20487;-84
2023/01/07 03:56:30;;;;;;;7.68;3.30;;;;;;;;;;4882913;29;20135;-84
2023/01/07 03:58:56;;;;;;;6.78;3.58;;;;;;;;;;4897425;29;20040;-83
2023/01/07 04:01:21;;;;;;;12.15;5.60;;;;;;;;;;4913549;29;20043;-83
2023/01/07 04:03:47;;;;;;;15.00;5.72;;;;;;;;;;4897461;29;20080;-83
2023/01/07 04:06:12;;;;;;;8.23;4.03;;;;;;;;;;4928932;29;20075;-86
2023/01/07 04:08:38;;;;;;;14.88;5.72;;;;;;;;;;4898151;29;20025;-85
2023/01/07 04:11:04;;;;;;;11.13;4.90;;;;;;;;;;4882014;29;20511;-85
2023/01/07 04:13:30;;;;;;;9.00;3.70;;;;;;;;;;4897261;29;20157;-84
2023/01/07 04:15:55;;;;;;;11.82;4.80;;;;;;;;;;4912528;29;20566;-83
2023/01/07 04:18:21;;;;;;;16.52;5.65;;;;;;;;;;4929552;29;20028;-83
2023/01/07 04:20:47;;;;;;;15.98;5.55;;;;;;;;;;4897731;29;20064;-84
2023/01/07 04:23:14;;;;;;;9.48;5.05;;;;;;;;;;4912049;29;20781;-83
2023/01/07 04:25:45;;;;;;;13.75;5.35;;;;;;;;;;4898495;29;20032;-83
2023/01/07 04:28:10;;;;;;;13.13;5.45;;;;;;;;;;4896525;29;20036;-85
2023/01/07 04:30:37;;;;;;;17.83;5.90;;;;;;;;;;4928117;29;20032;-85
2023/01/07 04:33:04;;;;;;;11.65;4.80;;;;;;;;;;4911328;29;20574;-85
2023/01/07 04:35:56;;;;;;;;;;;;;;;;;;;;;
2023/01/07 04:38:57;;;;;;;;;;;;;;;;;;;;;
2023/01/07 04:41:26;;;;;;;13.43;5.43;;;;;;;;;;4896834;29;20108;-84
2023/01/07 04:44:28;;;;;;;14.07;5.03;;;;;;;;;;4882415;29;20028;-84
2023/01/07 04:46:55;;;;;;;8.13;4.13;;;;;;;;;;4880778;29;20052;-83
2023/01/07 04:49:20;;;;;;;13.50;4.95;;;;;;;;;;4897978;29;20504;-83
2023/01/07 04:51:46;;;;;;;8.48;3.55;;;;;;;;;;4905697;29;20047;-83
2023/01/07 04:54:12;;;;;;;14.10;6.03;;;;;;;;;;4882273;29;20495;-83
2023/01/07 04:56:37;;;;;;;12.88;5.10;;;;;;;;;;4898245;29;20380;-83
2023/01/07 04:59:03;;;;;;;11.50;5.40;;;;;;;;;;4896366;29;20043;-85
2023/01/07 05:01:31;;;;;;;14.27;6.13;;;;;;;;;;4881096;29;20494;-83
2023/01/07 05:09:26;;;;;;;14.40;4.40;;;;;;;;;;4919075;29;20036;-84
2023/01/07 05:11:51;;;;;;;14.65;5.93;;;;;;;;;;4896358;29;20395;-83
2023/01/07 05:14:17;;;;;;;17.42;6.50;;;;;;;;;;4896223;29;20036;-83
2023/01/07 05:16:43;;;;;;;11.80;5.13;;;;;;;;;;4880789;29;20107;-83
2023/01/07 05:19:10;;;;;;;15.15;5.78;;;;;;;;;;4897279;29;20503;-84
2023/01/07 05:21:39;;;;;;;16.23;5.60;;;;;;;;;;4896248;29;20079;-84
2023/01/07 05:24:06;;;;;;;11.77;4.68;;;;;;;;;;4896531;29;20131;-84
2023/01/07 05:26:31;;;;;;;10.20;4.30;;;;;;;;;;4896441;29;20056;-84
2023/01/07 05:28:57;;;;;;;9.95;4.93;;;;;;;;;;4897907;29;20044;-85
2023/01/07 05:31:23;;;;;;;12.18;5.28;;;;;;;;;;4896413;29;20029;-84
2023/01/07 05:33:48;;;;;;;9.23;4.70;;;;;;;;;;4893059;29;20048;-84
2023/01/07 05:36:14;;;;;;;12.48;5.22;;;;;;;;;;4924913;29;20028;-84
2023/01/07 05:38:39;;;;;;;14.13;5.10;;;;;;;;;;4880648;29;20048;-85
2023/01/07 05:41:05;;;;;;;10.18;5.00;;;;;;;;;;4896913;29;20032;-84
2023/01/07 05:43:30;;;;;;;11.63;5.03;;;;;;;;;;4896653;29;20499;-84
2023/01/07 05:45:57;;;;;;;5.80;3.63;;;;;;;;;;4897004;29;20551;-84
2023/01/07 05:48:23;;;;;;;17.35;4.80;;;;;;;;;;4911984;29;20127;-85
2023/01/07 05:50:48;;;;;;;8.95;3.95;;;;;;;;;;4896025;29;20835;-86
2023/01/07 05:53:14;;;;;;;14.20;5.40;;;;;;;;;;4896794;29;20029;-84
2023/01/07 05:55:39;;;;;;;15.95;5.10;;;;;;;;;;4880443;29;20119;-85
2023/01/07 05:58:05;;;;;;;9.38;3.78;;;;;;;;;;4907954;29;20051;-86
2023/01/07 06:03:15;;;;;;;11.88;5.28;;;;;;;;;;4911283;29;20063;-86
2023/01/07 06:05:41;;;;;;;12.45;4.85;;;;;;;;;;4902461;29;20056;-86
2023/01/07 06:08:12;;;;;;;14.52;5.43;;;;;;;;;;4902255;29;20036;-86
2023/01/07 06:10:47;;;;;;;17.85;6.88;;;;;;;;;;4901269;29;20032;-84
2023/01/07 06:13:28;;;;;;;15.00;6.05;;;;;;;;;;4900922;29;20044;-84
2023/01/07 06:16:02;;;;;;;18.35;8.13;;;;;;;;;;4901403;29;20029;-84
2023/01/07 06:21:12;;;;;;;12.80;6.43;;;;;;;;;;4900794;29;20064;-84
2023/01/07 06:23:37;;;;;;;11.10;4.97;;;;;;;;;;4901100;29;20448;-84
2023/01/07 06:26:03;;;;;;;13.05;5.68;;;;;;;;;;4900896;29;20483;-87
2023/01/07 06:28:28;;;;;;;19.10;5.82;;;;;;;;;;4900108;29;20033;-85
2023/01/07 06:30:54;;;;;;;16.02;5.82;;;;;;;;;;4914386;29;20544;-84
2023/01/07 06:33:20;;;;;;;10.60;5.10;;;;;;;;;;4902131;29;20040;-85
2023/01/07 06:38:30;;;;;;;12.70;5.45;;;;;;;;;;4922183;29;20083;-85
2023/01/07 06:40:57;;;;;;;18.63;6.10;;;;;;;;;;4899278;29;20052;-85
2023/01/07 06:43:23;;;;;;;15.32;5.80;;;;;;;;;;4901085;29;20044;-86
2023/01/07 06:45:54;;;;;;;13.60;6.25;;;;;;;;;;4884928;29;20481;-85
2023/01/07 06:48:20;;;;;;;16.85;5.97;;;;;;;;;;4900510;29;20069;-84
2023/01/07 06:50:45;;;;;;;12.50;5.60;;;;;;;;;;4900403;29;20032;-84
2023/01/07 06:53:11;;;;;;;15.80;6.40;;;;;;;;;;4901118;29;20053;-85
2023/01/07 06:55:39;;;;;;;13.60;5.43;;;;;;;;;;4900092;29;20028;-85
2023/01/07 06:58:05;;;;;;;18.30;6.80;;;;;;;;;;4901101;29;20067;-85
2023/01/07 07:00:31;;;;;;;16.02;6.10;;;;;;;;;;4900565;29;20028;-84
2023/01/07 07:02:56;;;;;;;14.80;6.00;;;;;;;;;;4899001;29;20040;-83
2023/01/07 07:05:22;;;;;;;11.20;4.43;;;;;;;;;;4898419;29;20076;-85
2023/01/07 07:07:47;;;;;;;10.75;4.53;;;;;;;;;;4899412;29;20460;-85
2023/01/07 07:10:13;;;;;;;12.77;5.30;;;;;;;;;;4882540;29;20063;-84
2023/01/07 07:12:39;;;;;;;15.85;5.70;;;;;;;;;;4899877;29;20048;-83
2023/01/07 07:15:05;;;;;;;11.35;5.45;;;;;;;;;;4897402;29;20025;-83
2023/01/07 07:17:30;;;;;;;14.25;6.03;;;;;;;;;;4899257;29;20522;-86
2023/01/07 07:19:56;;;;;;;16.02;6.00;;;;;;;;;;4883324;29;20048;-83
2023/01/07 07:25:06;;;;;;;13.70;6.45;;;;;;;;;;4900818;29;20400;-86
2023/01/07 07:27:31;;;;;;;15.88;6.35;;;;;;;;;;4900547;29;20119;-84
2023/01/07 07:29:56;;;;;;;17.08;6.82;;;;;;;;;;4899434;29;20488;-87
2023/01/07 07:32:27;;;;;;;11.60;5.60;;;;;;;;;;4903010;29;20496;-85
2023/01/07 07:34:55;;;;;;;12.63;5.10;;;;;;;;;;4884970;29;20041;-85
2023/01/07 07:37:20;;;;;;;10.63;5.32;;;;;;;;;;4899691;29;20040;-84
2023/01/07 07:39:46;;;;;;;15.48;5.25;;;;;;;;;;4899387;29;20093;-87
2023/01/07 07:42:11;;;;;;;20.77;6.40;;;;;;;;;;4899958;29;20036;-87
2023/01/07 07:47:21;;;;;;;12.82;5.70;;;;;;;;;;4901360;29;20041;-86
2023/01/07 07:49:46;;;;;;;6.47;3.35;;;;;;;;;;4900755;29;20033;-85
2023/01/07 07:52:12;;;;;;;12.50;5.68;;;;;;;;;;4899853;29;20040;-83
2023/01/07 07:57:21;;;;;;;12.07;4.53;;;;;;;;;;4901417;29;20040;-87
2023/01/07 07:59:47;;;;;;;12.77;5.65;;;;;;;;;;4931739;29;20099;-86
2023/01/07 08:02:12;;;;;;;13.18;5.00;;;;;;;;;;4896322;29;20029;-87
2023/01/07 08:04:38;;;;;;;14.20;6.65;;;;;;;;;;4897906;29;20021;-86
2023/01/07 08:07:03;;;;;;;13.50;5.50;;;;;;;;;;4908702;29;20029;-86
2023/01/07 08:09:29;;;;;;;14.43;5.88;;;;;;;;;;4899463;29;20075;-85
2023/01/07 08:11:54;;;;;;;12.73;5.68;;;;;;;;;;4885307;29;20563;-84
2023/01/07 08:22:32;;;;;;;14.35;6.47;;;;;;;;;;4905808;29;20040;-86
2023/01/07 08:24:58;;;;;;;14.93;6.10;;;;;;;;;;4905555;29;20127;-87
2023/01/07 08:27:23;;;;;;;12.23;5.97;;;;;;;;;;4905808;29;20036;-88
2023/01/07 08:29:49;;;;;;;13.90;6.47;;;;;;;;;;4910545;29;20409;-86
2023/01/07 08:32:14;;;;;;;14.63;6.00;;;;;;;;;;4898496;29;20039;-87
2023/01/07 08:34:40;;;;;;;8.75;4.03;;;;;;;;;;4912675;29;20131;-87
2023/01/07 08:37:05;;;;;;;15.90;6.88;;;;;;;;;;4892332;29;20037;-88
2023/01/07 08:39:31;;;;;;;15.95;6.70;;;;;;;;;;4893675;29;20567;-88
2023/01/07 08:41:56;;;;;;;13.07;5.00;;;;;;;;;;4900113;29;20067;-88
2023/01/07 08:44:22;;;;;;;14.15;6.10;;;;;;;;;;4926222;29;20028;-88
2023/01/07 08:46:47;;;;;;;8.57;4.05;;;;;;;;;;4898637;29;20040;-87
2023/01/07 08:49:13;;;;;;;13.73;5.82;;;;;;;;;;4898053;29;20844;-85
2023/01/07 08:51:38;;;;;;;11.82;4.43;;;;;;;;;;4900780;29;20514;-86
2023/01/07 08:54:03;;;;;;;9.10;4.88;;;;;;;;;;4899152;29;20031;-88
2023/01/07 08:56:29;;;;;;;11.75;5.60;;;;;;;;;;4901404;29;20051;-87
2023/01/07 08:58:54;;;;;;;14.45;5.88;;;;;;;;;;4915119;29;20032;-87
2023/01/07 09:01:23;;;;;;;14.98;6.55;;;;;;;;;;4899941;29;20032;-87
2023/01/07 09:06:32;;;;;;;10.75;5.63;;;;;;;;;;4897776;29;20470;-87
2023/01/07 09:08:58;;;;;;;13.38;6.03;;;;;;;;;;4899821;29;20052;-89
2023/01/07 09:11:24;;;;;;;15.45;6.32;;;;;;;;;;4895598;29;20123;-89
2023/01/07 09:13:49;;;;;;;8.63;4.68;;;;;;;;;;4922315;29;20043;-87
2023/01/07 09:16:15;;;;;;;11.30;5.07;;;;;;;;;;4899151;29;20045;-87
2023/01/07 09:18:40;;;;;;;9.27;4.38;;;;;;;;;;4930854;29;20028;-88
2023/01/07 09:21:06;;;;;;;17.27;6.65;;;;;;;;;;4900418;29;20064;-87
2023/01/07 09:23:31;;;;;;;12.20;5.70;;;;;;;;;;4915034;29;20376;-89
2023/01/07 09:25:57;;;;;;;18.55;7.07;;;;;;;;;;4891783;29;20043;-87
2023/01/07 09:28:22;;;;;;;13.80;6.18;;;;;;;;;;4895669;29;20377;-86
2023/01/07 09:30:57;;;;;;;10.65;5.70;;;;;;;;;;4900659;29;20044;-87
2023/01/07 09:33:22;;;;;;;17.30;5.63;;;;;;;;;;4922546;29;20065;-88
2023/01/07 09:35:48;;;;;;;10.02;4.22;;;;;;;;;;4897664;29;20036;-90
2023/01/07 09:38:13;;;;;;;13.10;5.78;;;;;;;;;;4899294;29;20035;-88
2023/01/07 09:40:40;;;;;;;15.43;7.63;;;;;;;;;;4897345;29;20088;-89
2023/01/07 09:43:17;;;;;;;15.65;7.18;;;;;;;;;;4890474;29;20033;-87
2023/01/07 09:45:43;;;;;;;10.32;4.55;;;;;;;;;;4897348;29;20560;-85
2023/01/07 09:48:14;;;;;;;13.38;6.38;;;;;;;;;;4881713;29;20032;-86
2023/01/07 09:50:52;;;;;;;13.30;5.80;;;;;;;;;;4896952;29;20044;-87
2023/01/07 09:53:44;;;;;;;15.40;6.13;;;;;;;;;;4917837;29;20043;-88
2023/01/07 09:56:19;;;;;;;19.90;10.02;;;;;;;;;;4891519;29;20044;-84
2023/01/07 09:58:45;;;;;;;19.80;7.43;;;;;;;;;;4905385;29;20044;-90
2023/01/07 10:01:10;;;;;;;16.08;7.25;;;;;;;;;;4894773;29;20047;-88
2023/01/07 10:03:36;;;;;;;15.55;6.35;;;;;;;;;;4935097;29;20061;-87
2023/01/07 10:06:13;;;;;;;17.83;7.63;;;;;;;;;;4902489;29;20037;-89
2023/01/07 10:08:48;;;;;;;15.68;7.32;;;;;;;;;;4898210;29;20052;-89
2023/01/07 10:11:14;;;;;;;9.57;5.28;;;;;;;;;;4901061;29;20080;-89
2023/01/07 10:13:43;;;;;;;13.20;5.97;;;;;;;;;;4907443;29;20427;-90
2023/01/07 10:16:17;;;;;;;14.93;6.32;;;;;;;;;;4897685;29;20036;-90
2023/01/07 10:19:06;;;;;;;17.02;6.97;;;;;;;;;;4898671;29;20504;-91
2023/01/07 10:21:42;;;;;;;17.35;7.00;;;;;;;;;;4888682;29;20044;-89
2023/01/07 10:24:11;;;;;;;15.50;6.82;;;;;;;;;;4887886;29;20083;-90
2023/01/07 10:26:38;;;;;;;15.88;6.30;;;;;;;;;;4872158;29;20504;-88
2023/01/07 10:29:05;;;;;;;16.50;7.43;;;;;;;;;;4891487;29;20044;-89
2023/01/07 10:31:31;;;;;;;12.10;6.70;;;;;;;;;;4888436;29;20035;-89
2023/01/07 10:33:56;;;;;;;14.15;6.82;;;;;;;;;;4882197;29;20035;-90
2023/01/07 10:39:15;;;;;;;12.38;6.18;;;;;;;;;;4886867;29;20065;-89
2023/01/07 10:41:59;;;;;;;14.23;6.45;;;;;;;;;;4883557;29;20563;-88
2023/01/07 10:47:15;;;;;;;16.42;7.07;;;;;;;;;;4897640;29;20040;-89
2023/01/07 10:49:54;;;;;;;12.52;6.55;;;;;;;;;;4910956;29;20049;-89
2023/01/07 10:52:19;;;;;;;13.00;6.13;;;;;;;;;;4897658;29;20064;-89
2023/01/07 10:54:45;;;;;;;;;;;;;;;;;;4927641;29;20035;-90
2023/01/07 10:57:20;;;;;;;13.18;6.05;;;;;;;;;;4918734;29;19920;-92
2023/01/07 11:02:31;;;;;;;14.13;7.07;;;;;;;;;;4913434;29;20032;-91
2023/01/07 11:04:57;;;;;;;;;;;;;;;;;;4916683;29;20017;-90
2023/01/07 11:07:40;;;;;;;13.90;6.88;;;;;;;;;;4909005;29;19922;-90
2023/01/07 11:10:06;;;;;;;12.43;6.65;;;;;;;;;;4887494;29;20044;-90
2023/01/07 11:12:31;;;;;;;;;;;;;;;;;;4890315;29;20043;-89
2023/01/07 11:14:57;;;;;;;18.95;7.88;;;;;;;;;;4905650;29;19915;-90
2023/01/07 11:17:22;;;;;;;;;;;;;;;;;;4892279;29;20037;-89
2023/01/07 11:19:51;;;;;;;12.00;4.60;;;;;;;;;;4913345;29;19948;-90
2023/01/07 11:22:35;;;;;;;14.25;6.75;;;;;;;;;;4889647;29;20466;-91
2023/01/07 11:25:03;;;;;;;12.95;7.07;;;;;;;;;;4877940;29;20044;-92
2023/01/07 11:27:30;;;;;;;19.58;6.72;;;;;;;;;;4905332;29;20029;-92
2023/01/07 11:29:57;;;;;;;13.63;6.70;;;;;;;;;;4875791;29;20037;-92
2023/01/07 11:32:25;;;;;;;13.63;6.00;;;;;;;;;;4890195;29;20020;-89
2023/01/07 11:34:52;;;;;;;12.88;6.30;;;;;;;;;;4873540;29;20050;-93
2023/01/07 11:37:31;;;;;;;13.75;6.53;;;;;;;;;;4896082;29;20036;-91
2023/01/07 11:39:58;;;;;;;15.07;6.60;;;;;;;;;;4906806;29;20161;-92
2023/01/07 11:42:39;;;;;;;15.73;6.38;;;;;;;;;;4876729;29;20024;-91
2023/01/07 11:45:14;;;;;;;19.20;7.90;;;;;;;;;;4912849;29;20036;-91
2023/01/07 11:47:45;;;;;;;18.37;7.60;;;;;;;;;;4906035;29;20036;-90
2023/01/07 11:50:20;;;;;;;16.00;7.53;;;;;;;;;;4890706;29;20040;-92
2023/01/07 11:55:56;;;;;;;17.45;7.93;;;;;;;;;;4913452;29;20040;-91
2023/01/07 11:58:23;;;;;;;17.58;7.78;;;;;;;;;;4898120;29;20044;-91
2023/01/07 12:01:10;;;;;;;15.25;6.90;;;;;;;;;;4899302;29;20017;-91
2023/01/07 12:03:36;;;;;;;21.58;7.25;;;;;;;;;;4905777;29;20033;-92
2023/01/07 12:06:05;;;;;;;15.65;7.55;;;;;;;;;;4906191;29;20036;-92
2023/01/07 12:08:30;;;;;;;16.30;6.80;;;;;;;;;;4894180;29;20069;-91
2023/01/07 12:10:56;;;;;;;13.70;6.80;;;;;;;;;;4903204;29;20029;-92
2023/01/07 12:13:24;;;;;;;;;;;;;;;;;;4891144;29;20033;-91
2023/01/07 12:15:52;;;;;;;12.45;5.93;;;;;;;;;;4888993;29;19946;-91
2023/01/07 12:21:31;;;;;;;17.65;7.40;;;;;;;;;;4918499;29;20113;-89
2023/01/07 12:24:03;;;;;;;13.77;6.75;;;;;;;;;;4911947;29;20052;-90
2023/01/07 12:26:45;;;;;;;13.32;6.22;;;;;;;;;;4912695;29;20120;-92
2023/01/07 12:29:43;;;;;;;14.30;6.32;;;;;;;;;;4924325;29;20077;-92
2023/01/07 12:32:22;;;;;;;14.93;6.00;;;;;;;;;;4891516;29;20036;-90
2023/01/07 12:34:54;;;;;;;15.93;6.63;;;;;;;;;;4907116;29;20131;-92
2023/01/07 12:37:31;;;;;;;14.02;6.57;;;;;;;;;;4900503;29;20045;-92
2023/01/07 12:40:01;;;;;;;15.05;6.38;;;;;;;;;;4904062;29;20051;-91
2023/01/07 12:42:29;;;;;;;15.23;7.00;;;;;;;;;;4879826;29;20036;-91
2023/01/07 12:44:56;;;;;;;15.18;6.85;;;;;;;;;;4891718;29;20108;-91
2023/01/07 12:47:40;;;;;;;14.23;7.00;;;;;;;;;;4908198;29;20033;-93
2023/01/07 12:50:13;;;;;;;10.65;5.50;;;;;;;;;;4892802;29;20028;-87
2023/01/07 12:52:43;;;;;;;15.77;7.38;;;;;;;;;;4890655;29;20516;-89
2023/01/07 12:55:50;;;;;;;13.80;6.78;;;;;;;;;;4908234;29;20041;-90
2023/01/07 12:58:27;;;;;;;15.48;6.30;;;;;;;;;;4895882;29;20412;-90
2023/01/07 13:00:58;;;;;;;14.57;7.15;;;;;;;;;;4887997;29;20038;-91
2023/01/07 13:03:31;;;;;;;15.02;6.32;;;;;;;;;;4900169;29;20062;-90
2023/01/07 13:06:00;;;;;;;15.52;6.90;;;;;;;;;;4927725;29;20040;-90
2023/01/07 13:08:31;;;;;;;14.18;6.75;;;;;;;;;;4901900;29;20024;-88
2023/01/07 13:11:15;;;;;;;19.15;8.52;;;;;;;;;;4900277;29;20124;-90
2023/01/07 13:13:42;;;;;;;16.50;6.82;;;;;;;;;;4903086;29;20048;-88
2023/01/07 13:16:08;;;;;;;14.77;5.72;;;;;;;;;;4882114;29;20033;-91
2023/01/07 13:18:34;;;;;;;12.02;4.80;;;;;;;;;;4885560;29;20041;-91
2023/01/07 13:20:59;;;;;;;;;;;;;;;;;;4901780;29;20052;-89
2023/01/07 13:23:27;;;;;;;17.75;7.03;;;;;;;;;;4916444;29;20345;-91
2023/01/07 13:25:53;;;;;;;20.15;7.68;;;;;;;;;;4903106;29;20029;-91
2023/01/07 13:28:38;;;;;;;18.08;8.63;;;;;;;;;;4902833;29;20123;-90
2023/01/07 13:31:04;;;;;;;15.80;6.88;;;;;;;;;;4888578;29;20041;-90
2023/01/07 13:33:35;;;;;;;15.43;7.20;;;;;;;;;;4897696;29;20497;-92
2023/01/07 13:39:32;;;;;;;16.05;6.85;;;;;;;;;;4903451;29;20592;-91
2023/01/07 13:42:03;;;;;;;21.00;8.30;;;;;;;;;;4886964;29;20064;-88
2023/01/07 13:44:44;;;;;;;20.70;9.07;;;;;;;;;;4928375;29;20581;-91
2023/01/07 13:47:11;;;;;;;13.60;5.50;;;;;;;;;;4919388;29;20123;-90
2023/01/07 13:49:36;;;;;;;19.52;8.38;;;;;;;;;;4899331;29;20092;-89
2023/01/07 13:52:14;;;;;;;18.85;8.05;;;;;;;;;;4897278;29;20429;-90
2023/01/07 13:54:49;;;;;;;11.77;5.38;;;;;;;;;;4912454;29;20104;-89
2023/01/07 13:57:30;;;;;;;18.33;7.35;;;;;;;;;;4914430;29;20077;-89
2023/01/07 13:59:58;;;;;;;15.73;6.97;;;;;;;;;;4900662;29;20040;-90
2023/01/07 14:02:28;;;;;;;16.20;6.40;;;;;;;;;;4901366;29;20025;-89
2023/01/07 14:05:03;;;;;;;17.50;7.38;;;;;;;;;;4885711;29;20040;-90
2023/01/07 14:10:45;;;;;;;12.90;5.97;;;;;;;;;;4920778;29;20037;-91
2023/01/07 14:13:23;;;;;;;18.40;7.53;;;;;;;;;;4882940;29;20073;-90
2023/01/07 14:15:48;;;;;;;17.25;8.00;;;;;;;;;;4902009;29;20051;-90
2023/01/07 14:18:26;;;;;;;15.55;6.78;;;;;;;;;;4930527;29;20033;-91
2023/01/07 14:21:01;;;;;;;15.90;7.05;;;;;;;;;;4905086;29;20057;-93
2023/01/07 14:29:22;;;;;;;18.58;7.53;;;;;;;;;;4908945;29;20040;-90
2023/01/07 14:31:51;;;;;;;17.67;7.35;;;;;;;;;;4909183;29;20040;-91
2023/01/07 14:34:23;;;;;;;15.77;7.93;;;;;;;;;;4909094;29;20064;-92
2023/01/07 14:37:10;;;;;;;17.77;7.60;;;;;;;;;;4905106;29;20060;-91
2023/01/07 14:39:42;;;;;;;17.27;6.53;;;;;;;;;;4905046;29;20064;-91
2023/01/07 14:42:17;;;;;;;15.23;7.47;;;;;;;;;;4905871;29;20036;-92
2023/01/07 14:44:46;;;;;;;14.73;6.80;;;;;;;;;;4918015;29;20040;-91
2023/01/07 14:47:12;;;;;;;18.40;7.45;;;;;;;;;;4901847;29;20037;-92
2023/01/07 14:49:57;;;;;;;19.15;8.02;;;;;;;;;;4888922;29;20060;-92
2023/01/07 14:52:25;;;;;;;22.23;8.05;;;;;;;;;;4910076;29;20107;-92
2023/01/07 14:54:51;;;;;;;17.63;7.82;;;;;;;;;;4912940;29;20415;-92
2023/01/07 14:57:46;;;;;;;27.50;15.30;;;;;;;;;;4907552;29;20123;-92
2023/01/07 15:00:18;;;;;;;19.05;8.48;;;;;;;;;;4896322;29;20108;-93
2023/01/07 15:02:43;;;;;;;20.00;8.32;;;;;;;;;;4904565;29;20049;-92
2023/01/07 15:05:26;;;;;;;17.40;6.47;;;;;;;;;;4918996;29;20036;-92
2023/01/07 15:15:59;;;;;;;17.98;8.13;;;;;;;;;;4889251;29;20632;-92
2023/01/07 15:18:53;;;;;;;19.75;7.43;;;;;;;;;;4901020;29;20036;-88
2023/01/07 15:21:25;;;;;;;24.05;8.70;;;;;;;;;;4918133;29;20136;-92
2023/01/07 15:26:46;;;;;;;17.65;8.07;;;;;;;;;;4905978;29;20036;-90
2023/01/07 15:32:18;;;;;;;22.75;9.13;;;;;;;;;;4903841;29;20564;-90
2023/01/07 15:34:44;;;;;;;18.13;8.98;;;;;;;;;;4911657;29;20045;-91
2023/01/07 15:37:11;;;;;;;18.00;7.55;;;;;;;;;;4876016;29;20031;-91
2023/01/07 15:39:42;;;;;;;18.27;8.10;;;;;;;;;;4888472;29;20516;-91
2023/01/07 15:42:21;;;;;;;21.48;7.47;;;;;;;;;;4889662;29;20056;-92
2023/01/07 15:44:51;;;;;;;17.90;7.68;;;;;;;;;;4915890;29;20492;-90
2023/01/07 15:47:28;;;;;;;20.40;9.48;;;;;;;;;;4900452;29;20032;-93
2023/01/07 15:49:58;;;;;;;16.92;7.30;;;;;;;;;;4910150;29;20485;-91
2023/01/07 15:52:27;;;;;;;19.00;8.00;;;;;;;;;;4900335;29;20060;-89
2023/01/07 15:54:52;;;;;;;18.33;7.82;;;;;;;;;;4935214;29;20036;-90
2023/01/07 15:57:25;;;;;;;18.45;7.95;;;;;;;;;;4901810;29;20093;-91
2023/01/07 15:59:51;;;;;;;18.42;8.70;;;;;;;;;;4900792;29;20416;-91
2023/01/07 16:02:28;;;;;;;18.15;7.63;;;;;;;;;;4890925;29;20092;-90
2023/01/07 16:04:57;;;;;;;14.77;6.78;;;;;;;;;;4890354;29;20499;-93
2023/01/07 16:07:32;;;;;;;19.58;7.93;;;;;;;;;;4889333;29;20075;-92
2023/01/07 16:09:58;;;;;;;18.13;7.47;;;;;;;;;;4928206;29;20037;-91
2023/01/07 16:12:26;;;;;;;18.70;7.93;;;;;;;;;;4906045;29;20032;-92
2023/01/07 16:17:36;;;;;;;17.48;7.47;;;;;;;;;;4891998;29;20060;-92
2023/01/07 16:20:13;;;;;;;16.70;7.95;;;;;;;;;;4904085;29;20108;-92
2023/01/07 16:25:27;;;;;;;18.90;7.50;;;;;;;;;;4897569;29;20503;-91
2023/01/07 16:27:52;;;;;;;22.50;8.98;;;;;;;;;;4892514;29;20032;-91
2023/01/07 16:30:18;;;;;;;17.20;7.57;;;;;;;;;;4889633;29;20051;-90
2023/01/07 16:32:46;;;;;;;18.95;7.57;;;;;;;;;;4889488;29;20061;-91
2023/01/07 16:35:14;;;;;;;15.60;7.22;;;;;;;;;;4897447;29;20040;-91
2023/01/07 16:37:40;;;;;;;16.50;6.82;;;;;;;;;;4885773;29;20170;-91
2023/01/07 16:40:10;;;;;;;20.83;7.40;;;;;;;;;;4871288;29;20057;-92
2023/01/07 16:42:36;;;;;;;19.23;8.10;;;;;;;;;;4929249;29;20488;-91
2023/01/07 16:45:01;;;;;;;20.10;8.75;;;;;;;;;;4890279;29;20068;-90
2023/01/07 16:47:27;;;;;;;17.58;7.90;;;;;;;;;;4877335;29;20083;-91